Canton, SD

12:37 AM CDT on August 28, 2014 (GMT -0500)
Campingfarmer | Change Station
CLOSE
Current Station
Personal Weather Station
Location: Rock Valley, IA
Elevation: 1253 ft
Nearby Weather Stations

Elev 1253 ft 43.19 °N, 96.39 °W | Updated 6 minutes ago

Overcast
Overcast
68.2 °F
Feels Like 68.2 °F
N
1.6
Wind Variable Wind from East
Gusts 1.6 mph

Today
High -- | Low -- °F
--% Chance of Precip.
Yesterday
High -- | Low -- °F
Precip. -- in
6:46 AM 8:08 PM
Waxing Crescent, 6% visible
Pressure 30.06 in
Visibility 10.0 miles
Clouds Few 1000 ft
Mostly Cloudy 2700 ft
Overcast 13000 ft
Dew Point 68 °F
Humidity 99%
Rainfall 0.02 in
Snow Depth Not available.
UV 0 out of 12
Pollen 2.70 out of 12
Air Quality Not available.
Flu Activity Not available.
METAR KFSD 280456Z 13010KT 10SM FEW010 BKN027 OVC130 21/18 A3007 RMK AO2 SLP179 T02060183

More Conditions Fewer Conditions

Pressure 30.06 in
Visibility 10.0 miles
Clouds Few 1000 ft
Mostly Cloudy 2700 ft
Overcast 13000 ft
Dew Point 68 °F
Humidity 99%
Rainfall 0.02 in
Snow Depth Not available.
UV 0 out of 12
Pollen 2.70 out of 12
Air Quality Not available.
Flu Activity Not available.
METAR KFSD 280456Z 13010KT 10SM FEW010 BKN027 OVC130 21/18 A3007 RMK AO2 SLP179 T02060183

More Conditions Fewer Conditions

10-Day Weather Forecast

Almanac

Astronomy

Aug. 28, 2014 Rise Set
Actual Time 6:46 AM CDT 8:08 PM CDT
Civil Twilight 6:16 AM CDT 8:37 PM CDT
Nautical Twilight 5:40 AM CDT 9:13 PM CDT
Astronomical Twilight 5:02 AM CDT 9:51 PM CDT
Moon 9:45 AM CDT 9:26 PM CDT
Length of Visible Light 14h 21m
Length of Day
13h 22m
Tomorrow will be 2m 48s shorter.
Waxing Crescent, 6% of the Moon is Illuminated
Today
Waxing Crescent
Sep 2
First Quarter
Sep 8
Full
Sep 15
Last Quarter
Sep 24
New

Today's Extremes

State Highs State Lows

Community

WunderPhotos

Upload Photos

1,747,909 photos uploaded!

Nearby

Snow Depth

Station Depth Elevation
North Rapid Creek 0 in 6130 ft
Blind Park 0 in 6890 ft

Earthquake Activity

City Distance Mag. Time & Date
No recent earthquake activity has been reported nearby.
Minimum magnitude displayed is 2.5.

Coastal Water Temperatures

Place Temperature
No Stations Reporting

Nearby Weather Stations